This is the latest recevied weather packets stored in our database for station/object 4S6DRJ-13. If no packets are shown the sender has not sent any weather packets the latest 10 day(s).
| Time | Temp. | Humidity | Pressure | Rain* | Wind** | Luminosity | Snow |
|---|---|---|---|---|---|---|---|
| 1787881713 | 28.33° C | 85% | 1010.1 hPa | 0 mm | 0.45 m/s, 221° | 149 W/m² | - |
| 1787881652 | 28.33° C | 85% | 1010.1 hPa | 0 mm | 0.89 m/s, 240° | 135 W/m² | - |
| 1787881591 | 28.33° C | 85% | 1010.1 hPa | 0 mm | 2.24 m/s, 214° | 129 W/m² | - |
| 1787881530 | 28.33° C | 86% | 1010.1 hPa | 0 mm | 0 m/s | 139 W/m² | - |
| 1787881469 | 28.33° C | 86% | 1010.1 hPa | 0 mm | 0.45 m/s, 255° | 151 W/m² | - |
| 1787881408 | 28.33° C | 85% | 1009.9 hPa | 0 mm | 0.45 m/s, 230° | 130 W/m² | - |
| 1787881347 | 28.33° C | 86% | 1010.1 hPa | 0 mm | 1.79 m/s, 203° | 120 W/m² | - |
| 1787881286 | 28.33° C | 86% | 1010.1 hPa | 0 mm | 1.79 m/s, 214° | 113 W/m² | - |
| 1787881225 | 27.78° C | 86% | 1010.1 hPa | 0 mm | 1.79 m/s, 219° | 112 W/m² | - |
| 1787881165 | 27.78° C | 86% | 1010.1 hPa | 0 mm | 0.89 m/s, 242° | 113 W/m² | - |
| 1787881103 | 27.78° C | 86% | 1010.1 hPa | 0 mm | 0.89 m/s, 213° | 126 W/m² | - |
| 1787881042 | 27.78° C | 86% | 1010 hPa | 0 mm | 1.79 m/s, 241° | 106 W/m² | - |
| 1787880981 | 27.78° C | 86% | 1010.1 hPa | 0 mm | 0.45 m/s, 227° | 110 W/m² | - |
| 1787880920 | 27.78° C | 86% | 1010.1 hPa | 0 mm | 0.45 m/s, 201° | 108 W/m² | - |
| 1787880859 | 27.78° C | 86% | 1010 hPa | 0 mm | 0.89 m/s, 190° | 116 W/m² | - |
| 1787880798 | 27.78° C | 86% | 1010.1 hPa | 0 mm | 1.79 m/s, 223° | 104 W/m² | - |
| 1787880736 | 27.78° C | 86% | 1010 hPa | 0 mm | 0.45 m/s, 229° | 97 W/m² | - |
| 1787880684 | 27.78° C | 86% | 1010 hPa | 0 mm | 0.89 m/s, 263° | 92 W/m² | - |
| 1787880615 | 27.78° C | 86% | 1010 hPa | 0 mm | 0.89 m/s, 150° | 88 W/m² | - |
| 1787880554 | 27.78° C | 86% | 1010 hPa | 0 mm | 0.45 m/s, 226° | 86 W/m² | - |
| 1787880493 | 27.78° C | 86% | 1010.1 hPa | 0 mm | 0.89 m/s, 211° | 86 W/m² | - |
| 1787880432 | 27.78° C | 86% | 1009.9 hPa | 0 mm | 0.45 m/s, 164° | 83 W/m² | - |
| 1787880371 | 27.78° C | 86% | 1010 hPa | 0 mm | 0.89 m/s, 205° | 80 W/m² | - |
| 1787880309 | 27.78° C | 86% | 1009.9 hPa | 0 mm | 0.89 m/s, 199° | 77 W/m² | - |
| 1787880248 | 27.78° C | 86% | 1010 hPa | 0 mm | 1.34 m/s, 258° | 74 W/m² | - |
* Rain latest hour (hover to see other rain measurements)
** Current wind speed in m/s (hover to see current wind gust speed)